Time;durP1;ratioP1;P1;durP2;ratioP2;P2;SDS_P1;SDS_P2;PMS_P1;PMS_P2;Temp;Humidity;BMP_temperature;BMP_pressure;BME280_temperature;BME280_humidity;BME280_pressure;Samples;Min_cycle;Max_cycle;Signal;HPM_P1;HPM_P2
2024/02/04 00:00:24;;;;;;;7.37;2.87;;;16.60;99.90;;;;;;4969379;28;20043;-74
2024/02/04 00:02:50;;;;;;;4.40;2.50;;;16.50;99.90;;;;;;4971962;28;20080;-72
2024/02/04 00:05:16;;;;;;;8.57;2.67;;;16.60;99.90;;;;;;4986506;28;20042;-72
2024/02/04 00:07:41;;;;;;;6.80;2.80;;;16.50;99.90;;;;;;4986412;28;20500;-73
2024/02/04 00:10:07;;;;;;;4.90;2.40;;;16.50;99.90;;;;;;4970908;28;20034;-72
2024/02/04 00:12:33;;;;;;;9.23;2.95;;;16.50;99.90;;;;;;4961519;28;20543;-72
2024/02/04 00:14:59;;;;;;;5.77;2.70;;;16.50;99.90;;;;;;4971713;28;20055;-72
2024/02/04 00:17:29;;;;;;;6.83;2.80;;;16.50;99.90;;;;;;4974617;28;20047;-73
2024/02/04 00:19:56;;;;;;;6.30;2.47;;;16.50;99.90;;;;;;4975391;28;20038;-74
2024/02/04 00:22:22;;;;;;;4.32;2.38;;;16.50;99.90;;;;;;4975222;28;20023;-75
2024/02/04 00:24:48;;;;;;;3.15;2.03;;;16.50;99.90;;;;;;4975606;28;20030;-73
2024/02/04 00:27:14;;;;;;;7.97;2.20;;;16.50;99.90;;;;;;4989827;28;20066;-74
2024/02/04 00:29:39;;;;;;;4.13;2.27;;;16.50;99.90;;;;;;4973691;28;20031;-72
2024/02/04 00:32:05;;;;;;;4.10;2.07;;;16.50;99.90;;;;;;4973607;28;20030;-73
2024/02/04 00:34:31;;;;;;;5.73;2.70;;;16.50;99.90;;;;;;4990102;28;20047;-72
2024/02/04 00:36:57;;;;;;;5.40;2.30;;;16.50;99.90;;;;;;4974067;28;20058;-72
2024/02/04 00:39:22;;;;;;;4.83;2.93;;;16.50;99.90;;;;;;4975263;28;20058;-72
2024/02/04 00:41:48;;;;;;;5.03;1.83;;;16.40;99.90;;;;;;4989481;28;20039;-73
2024/02/04 00:44:13;;;;;;;4.53;2.23;;;16.40;99.90;;;;;;4975114;28;20440;-73
2024/02/04 00:46:39;;;;;;;5.30;2.13;;;16.40;99.90;;;;;;4975392;28;20034;-73
2024/02/04 00:49:05;;;;;;;6.83;2.13;;;16.40;99.90;;;;;;4973667;28;20039;-75
2024/02/04 00:51:30;;;;;;;4.90;2.13;;;16.40;99.90;;;;;;4973952;28;20027;-72
2024/02/04 00:53:56;;;;;;;4.33;2.10;;;16.40;99.90;;;;;;4973272;28;20034;-74
2024/02/04 00:56:22;;;;;;;4.13;1.67;;;16.40;99.90;;;;;;4974324;28;20046;-74
2024/02/04 00:58:47;;;;;;;3.87;2.20;;;16.40;99.90;;;;;;4975090;28;20045;-73
2024/02/04 01:01:13;;;;;;;4.63;2.27;;;16.40;99.90;;;;;;4973386;28;20023;-73
2024/02/04 01:03:39;;;;;;;4.83;2.00;;;16.40;99.90;;;;;;4973410;28;20027;-72
2024/02/04 01:06:04;;;;;;;3.83;2.37;;;16.40;99.90;;;;;;4974585;28;20039;-73
2024/02/04 01:08:30;;;;;;;6.57;2.20;;;16.40;99.90;;;;;;4974683;28;20062;-75
2024/02/04 01:10:56;;;;;;;3.90;1.60;;;16.40;99.90;;;;;;4974706;28;20062;-72
2024/02/04 01:13:21;;;;;;;4.57;1.70;;;16.40;99.90;;;;;;4974144;28;20082;-72
2024/02/04 01:15:47;;;;;;;3.07;1.77;;;16.40;99.90;;;;;;4970028;28;20042;-72
2024/02/04 01:18:13;;;;;;;5.23;1.90;;;16.30;99.90;;;;;;4969673;28;20117;-72
2024/02/04 01:20:38;;;;;;;3.33;2.00;;;16.30;99.90;;;;;;4974346;28;20038;-72
2024/02/04 01:23:04;;;;;;;5.37;1.87;;;16.30;99.90;;;;;;4974603;28;20031;-73
2024/02/04 01:25:30;;;;;;;3.37;1.80;;;16.30;99.90;;;;;;4974394;28;20059;-72
2024/02/04 01:27:55;;;;;;;5.60;2.00;;;16.30;99.90;;;;;;4972718;28;20030;-74
2024/02/04 01:30:21;;;;;;;5.97;1.70;;;16.30;99.90;;;;;;4971373;28;20027;-72
2024/02/04 01:32:46;;;;;;;4.90;1.80;;;16.30;99.90;;;;;;4977744;28;20085;-72
2024/02/04 01:35:12;;;;;;;3.97;1.87;;;16.30;99.90;;;;;;4975863;28;20121;-73
2024/02/04 01:37:38;;;;;;;5.50;1.90;;;16.30;99.90;;;;;;4993687;28;20030;-73
2024/02/04 01:40:05;;;;;;;4.50;1.90;;;16.30;99.90;;;;;;4990135;28;20490;-72
2024/02/04 01:42:31;;;;;;;5.00;1.77;;;16.30;99.90;;;;;;4980505;28;20027;-72
2024/02/04 01:44:57;;;;;;;2.30;1.23;;;16.20;99.90;;;;;;4987793;28;20491;-72
2024/02/04 01:47:23;;;;;;;5.93;2.43;;;16.20;99.90;;;;;;4975129;28;20035;-72
2024/02/04 01:49:49;;;;;;;3.97;1.60;;;16.20;99.90;;;;;;4990609;28;20092;-72
2024/02/04 01:52:15;;;;;;;2.88;1.92;;;16.20;99.90;;;;;;4993909;28;20084;-73
2024/02/04 01:54:42;;;;;;;3.25;2.15;;;16.20;99.90;;;;;;4976410;28;20114;-72
2024/02/04 01:57:10;;;;;;;4.20;1.90;;;16.20;99.90;;;;;;4983571;28;20038;-72
2024/02/04 01:59:39;;;;;;;5.43;1.85;;;16.20;99.90;;;;;;4979418;28;20031;-72
2024/02/04 02:02:06;;;;;;;3.22;1.50;;;16.20;99.90;;;;;;4988641;28;20589;-73
2024/02/04 02:04:31;;;;;;;2.70;1.40;;;16.20;99.90;;;;;;4985270;28;20636;-72
2024/02/04 02:06:59;;;;;;;4.77;2.07;;;16.20;99.90;;;;;;4979254;28;20117;-73
2024/02/04 02:09:26;;;;;;;3.33;1.38;;;16.20;99.90;;;;;;4979283;28;20261;-72
2024/02/04 02:12:14;;;;;;;3.30;1.42;;;16.10;99.90;;;;;;4974392;28;20066;-72
2024/02/04 02:14:46;;;;;;;2.35;1.55;;;16.20;99.90;;;;;;4985057;28;20065;-74
2024/02/04 02:17:18;;;;;;;6.22;1.58;;;16.10;99.90;;;;;;5004011;28;20048;-73
2024/02/04 02:19:59;;;;;;;6.55;1.88;;;16.10;99.90;;;;;;4980580;28;20038;-72
2024/02/04 02:22:30;;;;;;;3.20;1.60;;;16.10;99.90;;;;;;4972834;28;20058;-73
2024/02/04 02:24:57;;;;;;;3.65;1.75;;;16.10;99.90;;;;;;4985929;28;20479;-73
2024/02/04 02:27:22;;;;;;;2.85;1.52;;;16.10;99.90;;;;;;4972653;28;20031;-72
2024/02/04 02:29:48;;;;;;;4.70;1.10;;;16.10;99.90;;;;;;4971804;28;20169;-73
2024/02/04 02:32:14;;;;;;;6.23;1.83;;;16.10;99.90;;;;;;4972680;28;20030;-72
2024/02/04 02:34:41;;;;;;;2.22;1.40;;;16.10;99.90;;;;;;4973012;28;20047;-73
2024/02/04 02:37:24;;;;;;;2.88;1.55;;;16.10;99.90;;;;;;4971465;28;20043;-72
2024/02/04 02:40:08;;;;;;;2.35;1.27;;;16.10;99.90;;;;;;4976934;28;20113;-73
2024/02/04 02:42:36;;;;;;;5.70;1.77;;;16.00;99.90;;;;;;4982197;28;20069;-72
2024/02/04 02:45:02;;;;;;;6.28;2.30;;;16.00;99.90;;;;;;4990245;28;20035;-72
2024/02/04 02:47:29;;;;;;;;;;;16.00;99.90;;;;;;4993414;28;20022;-73
2024/02/04 02:49:54;;;;;;;3.30;1.33;;;16.00;99.90;;;;;;4977569;28;19918;-74
2024/02/04 02:52:23;;;;;;;1.47;1.10;;;16.00;99.90;;;;;;4984056;28;20088;-72
2024/02/04 02:54:49;;;;;;;3.20;1.45;;;16.00;99.90;;;;;;4976039;28;20515;-74
2024/02/04 02:57:15;;;;;;;2.80;1.83;;;16.00;99.90;;;;;;4979609;28;20062;-72
2024/02/04 02:59:40;;;;;;;2.80;1.27;;;16.00;99.90;;;;;;4974658;28;20039;-72
2024/02/04 03:02:06;;;;;;;7.27;1.33;;;16.00;99.90;;;;;;4978568;28;20368;-72
2024/02/04 03:04:31;;;;;;;5.83;1.27;;;15.90;99.90;;;;;;4972869;28;20058;-72
2024/02/04 03:06:57;;;;;;;2.40;1.33;;;16.00;99.90;;;;;;4992293;28;20042;-72
2024/02/04 03:09:23;;;;;;;3.33;1.27;;;16.00;99.90;;;;;;4999864;28;20022;-72
2024/02/04 03:11:48;;;;;;;4.53;1.30;;;16.00;99.90;;;;;;4979705;28;20150;-72
2024/02/04 03:14:16;;;;;;;2.83;1.23;;;15.90;99.90;;;;;;4986749;28;20030;-74
2024/02/04 03:16:45;;;;;;;4.32;1.70;;;15.90;99.90;;;;;;4985107;28;20042;-74
2024/02/04 03:19:10;;;;;;;4.35;1.38;;;15.90;99.90;;;;;;4980572;28;20041;-72
2024/02/04 03:21:36;;;;;;;4.80;1.40;;;15.90;99.90;;;;;;4975977;28;20038;-74
2024/02/04 03:24:02;;;;;;;1.50;1.10;;;15.90;99.90;;;;;;4979457;28;20058;-73
2024/02/04 03:26:27;;;;;;;1.63;1.27;;;15.90;99.90;;;;;;4977091;28;20038;-71
2024/02/04 03:28:53;;;;;;;2.03;1.20;;;15.90;99.90;;;;;;4972859;28;20049;-72
2024/02/04 03:31:25;;;;;;;2.00;1.00;;;15.90;99.90;;;;;;4977886;28;20109;-73
2024/02/04 03:33:51;;;;;;;2.90;1.10;;;15.90;99.90;;;;;;4983610;28;20065;-74
2024/02/04 03:36:20;;;;;;;2.87;1.10;;;15.90;99.90;;;;;;4991208;28;20387;-72
2024/02/04 03:38:45;;;;;;;2.70;1.35;;;15.90;99.90;;;;;;4986618;28;20272;-72
2024/02/04 03:41:11;;;;;;;2.43;1.27;;;15.90;99.90;;;;;;4984159;28;20088;-73
2024/02/04 03:43:37;;;;;;;3.03;1.37;;;15.90;99.90;;;;;;4982124;28;20435;-72
2024/02/04 03:46:03;;;;;;;3.45;1.85;;;15.90;99.90;;;;;;4982622;28;20041;-71
2024/02/04 03:48:29;;;;;;;3.53;1.30;;;15.90;99.90;;;;;;4990018;28;20026;-72
2024/02/04 03:50:54;;;;;;;2.10;1.10;;;15.90;99.90;;;;;;4977871;28;20038;-72
2024/02/04 03:53:22;;;;;;;2.57;1.13;;;15.90;99.90;;;;;;4990873;28;20085;-74
2024/02/04 03:55:48;;;;;;;2.88;1.08;;;15.80;99.90;;;;;;4979936;28;20035;-73
2024/02/04 03:58:14;;;;;;;2.50;1.10;;;15.80;99.90;;;;;;4975602;28;20038;-74
2024/02/04 04:00:40;;;;;;;3.30;1.10;;;15.80;99.90;;;;;;4982633;28;20097;-73
2024/02/04 04:03:06;;;;;;;3.33;1.00;;;15.80;99.90;;;;;;4992109;28;20042;-73
2024/02/04 04:05:31;;;;;;;3.03;1.07;;;15.80;99.90;;;;;;4975244;28;20446;-72
2024/02/04 04:07:57;;;;;;;4.50;1.23;;;15.80;99.90;;;;;;4991676;28;20038;-70
2024/02/04 04:10:23;;;;;;;4.73;0.80;;;15.80;99.90;;;;;;4996563;28;20022;-72
2024/02/04 04:12:48;;;;;;;7.43;1.37;;;15.80;99.90;;;;;;4978645;28;20108;-72
2024/02/04 04:15:14;;;;;;;3.60;1.10;;;15.90;99.90;;;;;;4978695;28;20039;-72
2024/02/04 04:17:40;;;;;;;4.10;1.20;;;15.90;99.90;;;;;;4987028;28;20034;-72
2024/02/04 04:20:07;;;;;;;2.93;1.43;;;15.90;99.90;;;;;;4985303;28;20117;-71
2024/02/04 04:22:33;;;;;;;;;;;15.90;99.90;;;;;;4990358;28;20022;-72
2024/02/04 04:24:58;;;;;;;1.42;1.00;;;15.90;99.90;;;;;;4991073;28;19917;-72
2024/02/04 04:27:24;;;;;;;4.80;1.23;;;15.90;99.90;;;;;;4979603;28;20487;-73
2024/02/04 04:29:50;;;;;;;6.10;1.97;;;15.90;99.90;;;;;;4979434;28;20392;-72
2024/02/04 04:32:15;;;;;;;1.10;0.90;;;15.90;99.90;;;;;;4983213;28;20093;-73
2024/02/04 04:34:41;;;;;;;2.90;1.00;;;15.90;99.90;;;;;;4973970;28;20039;-71
2024/02/04 04:37:07;;;;;;;6.57;1.50;;;15.90;99.90;;;;;;4975206;28;20487;-72
2024/02/04 04:39:32;;;;;;;2.50;1.13;;;15.90;99.90;;;;;;4998901;28;20061;-72
2024/02/04 04:41:58;;;;;;;3.37;0.90;;;15.90;99.90;;;;;;4985902;28;20035;-71
2024/02/04 04:44:24;;;;;;;6.70;1.60;;;15.90;99.90;;;;;;4982439;28;20105;-72
2024/02/04 04:46:49;;;;;;;2.83;0.93;;;15.90;99.90;;;;;;5000228;28;20479;-72
2024/02/04 04:49:15;;;;;;;2.17;1.17;;;15.90;99.90;;;;;;4975026;28;20034;-72
2024/02/04 04:51:47;;;;;;;2.23;1.00;;;15.90;99.90;;;;;;5001065;28;20427;-73
2024/02/04 04:54:13;;;;;;;1.65;0.80;;;15.90;99.90;;;;;;4991169;28;20065;-71
2024/02/04 04:56:39;;;;;;;2.20;1.10;;;15.90;99.90;;;;;;4990695;28;20066;-72
2024/02/04 04:59:07;;;;;;;4.05;1.23;;;15.90;99.90;;;;;;4991400;28;20097;-72
2024/02/04 05:01:33;;;;;;;5.47;1.17;;;15.90;99.90;;;;;;4976151;28;20054;-72
2024/02/04 05:03:58;;;;;;;2.77;1.57;;;15.80;99.90;;;;;;4978688;28;20030;-72
2024/02/04 05:06:24;;;;;;;2.20;0.90;;;15.80;99.90;;;;;;4994393;28;20830;-71
2024/02/04 05:08:50;;;;;;;3.73;1.03;;;15.90;99.90;;;;;;4984301;28;20035;-72
2024/02/04 05:11:15;;;;;;;3.80;0.80;;;15.90;99.90;;;;;;4986475;28;20093;-72
2024/02/04 05:13:41;;;;;;;2.90;0.70;;;15.90;99.90;;;;;;4976848;28;20472;-72
2024/02/04 05:16:07;;;;;;;2.90;1.53;;;15.90;99.90;;;;;;5005987;28;20394;-72
2024/02/04 05:18:32;;;;;;;3.90;1.00;;;15.90;99.90;;;;;;4980341;28;20043;-72
2024/02/04 05:20:58;;;;;;;1.67;0.77;;;15.90;99.90;;;;;;4992374;28;20023;-71
2024/02/04 05:23:24;;;;;;;1.17;0.97;;;15.90;99.90;;;;;;4994710;28;20110;-73
2024/02/04 05:25:50;;;;;;;2.45;1.38;;;15.90;99.90;;;;;;4992732;28;20121;-71
2024/02/04 05:28:15;;;;;;;4.20;0.93;;;15.90;99.90;;;;;;4984491;28;20121;-71
2024/02/04 05:30:41;;;;;;;1.70;1.00;;;15.80;99.90;;;;;;4986832;28;20033;-71
2024/02/04 05:33:07;;;;;;;1.73;0.83;;;15.80;99.90;;;;;;4983770;28;20142;-72
2024/02/04 05:35:32;;;;;;;2.23;1.20;;;15.80;99.90;;;;;;5009078;28;20464;-72
2024/02/04 05:37:58;;;;;;;4.30;1.23;;;15.80;99.90;;;;;;4989046;28;20104;-72
2024/02/04 05:40:23;;;;;;;2.77;1.27;;;15.80;99.90;;;;;;4993940;28;20026;-72
2024/02/04 05:42:49;;;;;;;4.10;0.90;;;15.80;99.90;;;;;;4984041;28;20041;-71
2024/02/04 05:45:15;;;;;;;1.97;0.90;;;15.80;99.90;;;;;;4978952;28;20069;-71
2024/02/04 05:47:40;;;;;;;4.13;1.37;;;15.80;99.90;;;;;;4992743;28;20030;-71
2024/02/04 05:50:07;;;;;;;3.30;1.27;;;15.80;99.90;;;;;;4992845;28;20061;-73
2024/02/04 05:52:32;;;;;;;6.47;1.02;;;15.80;99.90;;;;;;4993736;28;20034;-73
2024/02/04 05:54:58;;;;;;;1.73;0.70;;;15.80;99.90;;;;;;4992415;28;20038;-72
2024/02/04 05:57:23;;;;;;;2.13;1.10;;;15.80;99.90;;;;;;4980721;28;20034;-73
2024/02/04 05:59:52;;;;;;;3.70;1.10;;;15.80;99.90;;;;;;4973490;28;20041;-72
2024/02/04 06:02:18;;;;;;;1.70;0.85;;;15.80;99.90;;;;;;4977746;28;20082;-72
2024/02/04 06:04:43;;;;;;;1.63;0.63;;;15.80;99.90;;;;;;4978432;28;20535;-72
2024/02/04 06:07:09;;;;;;;2.23;0.93;;;15.80;99.90;;;;;;4976940;28;20217;-72
2024/02/04 06:09:35;;;;;;;3.37;0.90;;;15.80;99.90;;;;;;4973469;28;20042;-73
2024/02/04 06:12:02;;;;;;;1.92;0.80;;;15.70;99.90;;;;;;4973884;28;20134;-72
2024/02/04 06:14:27;;;;;;;1.67;1.02;;;15.70;99.90;;;;;;4969036;28;20035;-73
2024/02/04 06:16:53;;;;;;;1.83;0.70;;;15.70;99.90;;;;;;4973278;28;20045;-71
2024/02/04 06:19:19;;;;;;;2.03;0.97;;;15.70;99.90;;;;;;4972333;28;20476;-72
2024/02/04 06:21:44;;;;;;;1.40;1.03;;;15.70;99.90;;;;;;4973438;28;20764;-73
2024/02/04 06:24:10;;;;;;;2.80;0.97;;;15.70;99.90;;;;;;4969902;28;20082;-74
2024/02/04 06:26:39;;;;;;;3.17;0.70;;;15.70;99.90;;;;;;4972205;28;20047;-72
2024/02/04 06:29:05;;;;;;;3.50;1.00;;;15.70;99.90;;;;;;4973377;28;20496;-72
2024/02/04 06:31:31;;;;;;;1.47;0.87;;;15.70;99.90;;;;;;4971943;28;20041;-72
2024/02/04 06:33:56;;;;;;;2.03;0.80;;;15.70;99.90;;;;;;4971864;28;20082;-72
2024/02/04 06:36:22;;;;;;;2.20;1.03;;;15.70;99.90;;;;;;4972792;28;20420;-72
2024/02/04 06:38:48;;;;;;;2.67;1.00;;;15.70;99.90;;;;;;4972200;28;20026;-72
2024/02/04 06:41:13;;;;;;;3.80;1.00;;;15.70;99.90;;;;;;4985680;28;20034;-72
2024/02/04 06:43:39;;;;;;;5.67;1.33;;;15.70;99.90;;;;;;4977389;28;20022;-74
2024/02/04 06:46:05;;;;;;;1.90;1.07;;;15.70;99.90;;;;;;4970601;28;20038;-73
2024/02/04 06:48:30;;;;;;;3.60;0.93;;;15.70;99.90;;;;;;4980164;28;20454;-73
2024/02/04 06:50:56;;;;;;;2.30;1.00;;;15.70;99.90;;;;;;4991333;28;20037;-72
2024/02/04 06:53:22;;;;;;;1.27;0.97;;;15.60;99.90;;;;;;4992548;28;20026;-72
2024/02/04 06:55:47;;;;;;;2.20;0.80;;;15.60;99.90;;;;;;4978997;28;20023;-72
2024/02/04 06:58:13;;;;;;;3.83;0.90;;;15.60;99.90;;;;;;4983897;28;20045;-74
2024/02/04 07:00:39;;;;;;;2.67;1.00;;;15.60;99.90;;;;;;4991064;28;20392;-72
2024/02/04 07:03:04;;;;;;;3.93;0.80;;;15.60;99.90;;;;;;4985523;28;20117;-73
2024/02/04 07:05:33;;;;;;;0.77;0.70;;;15.60;99.90;;;;;;4977554;28;20688;-72
2024/02/04 07:07:58;;;;;;;3.25;0.90;;;15.60;99.90;;;;;;4981396;28;20030;-73
2024/02/04 07:10:24;;;;;;;2.27;0.70;;;15.60;99.90;;;;;;4990882;28;20492;-72
2024/02/04 07:12:50;;;;;;;1.47;0.87;;;15.60;99.90;;;;;;4992339;28;20464;-72
2024/02/04 07:15:15;;;;;;;3.10;1.20;;;15.60;99.90;;;;;;4984200;28;20465;-72
2024/02/04 07:17:41;;;;;;;3.20;0.80;;;15.60;99.90;;;;;;4982177;28;20077;-71
2024/02/04 07:20:07;;;;;;;1.70;0.90;;;15.60;99.90;;;;;;4983500;28;20056;-72
2024/02/04 07:22:34;;;;;;;3.70;0.90;;;15.60;99.90;;;;;;4992120;28;20045;-73
2024/02/04 07:25:00;;;;;;;2.42;0.88;;;15.60;99.90;;;;;;4989766;28;20042;-73
2024/02/04 07:27:26;;;;;;;1.80;0.90;;;15.60;99.90;;;;;;4978301;28;20039;-72
2024/02/04 07:29:54;;;;;;;5.10;1.27;;;15.60;99.90;;;;;;4984533;28;20061;-71
2024/02/04 07:32:20;;;;;;;2.40;0.90;;;15.60;99.90;;;;;;4986895;28;20035;-73
2024/02/04 07:34:46;;;;;;;1.88;0.90;;;15.60;99.90;;;;;;4974049;28;20047;-72
2024/02/04 07:37:12;;;;;;;1.10;0.70;;;15.60;99.90;;;;;;4974515;28;20046;-71
2024/02/04 07:39:38;;;;;;;3.43;1.50;;;15.60;99.90;;;;;;4977748;28;20027;-73
2024/02/04 07:42:04;;;;;;;2.13;0.93;;;15.60;99.90;;;;;;4990136;28;20420;-72
2024/02/04 07:44:29;;;;;;;3.57;1.10;;;15.50;99.90;;;;;;4986705;28;20363;-72
2024/02/04 07:46:55;;;;;;;3.27;1.07;;;15.60;99.90;;;;;;4975048;28;20368;-73
2024/02/04 07:49:21;;;;;;;3.63;1.20;;;15.60;99.90;;;;;;4981888;28;20030;-72
2024/02/04 07:51:47;;;;;;;3.13;1.00;;;15.60;99.90;;;;;;5001720;28;20470;-72
2024/02/04 07:54:12;;;;;;;2.70;1.10;;;15.60;99.90;;;;;;4990128;28;20033;-72
2024/02/04 07:56:38;;;;;;;4.30;1.13;;;15.60;99.90;;;;;;4974769;28;20532;-72
2024/02/04 07:59:04;;;;;;;1.53;1.20;;;15.60;99.90;;;;;;4989998;28;20034;-71
2024/02/04 08:01:30;;;;;;;3.83;1.20;;;15.60;99.90;;;;;;4990195;28;20479;-72
2024/02/04 08:03:56;;;;;;;2.05;1.20;;;15.60;99.90;;;;;;4976170;28;20050;-72
2024/02/04 08:06:22;;;;;;;2.40;1.20;;;15.60;99.90;;;;;;4983745;28;20112;-72
2024/02/04 08:08:48;;;;;;;2.83;0.90;;;15.60;99.90;;;;;;4982593;28;20272;-72
2024/02/04 08:11:17;;;;;;;2.73;1.00;;;15.60;99.90;;;;;;4981500;28;20058;-72
2024/02/04 08:13:44;;;;;;;2.65;1.00;;;15.60;99.90;;;;;;4974858;28;20053;-71
2024/02/04 08:16:10;;;;;;;3.65;1.60;;;15.60;99.90;;;;;;4973788;28;20026;-71
2024/02/04 08:18:36;;;;;;;2.15;1.08;;;15.50;99.90;;;;;;4985024;28;20114;-73
2024/02/04 08:21:02;;;;;;;2.90;1.00;;;15.60;99.90;;;;;;4978530;28;20425;-73
2024/02/04 08:23:27;;;;;;;1.75;0.90;;;15.50;99.90;;;;;;4978770;28;20035;-72
2024/02/04 08:25:53;;;;;;;2.53;1.30;;;15.50;99.90;;;;;;4972242;28;20040;-71
2024/02/04 08:28:19;;;;;;;1.67;1.17;;;15.50;99.90;;;;;;4979357;28;20038;-71
2024/02/04 08:30:44;;;;;;;2.37;1.20;;;15.50;99.90;;;;;;4981513;28;20066;-73
2024/02/04 08:33:10;;;;;;;3.87;1.37;;;15.50;99.90;;;;;;5003800;28;20081;-71
2024/02/04 08:35:36;;;;;;;3.53;1.13;;;15.50;99.90;;;;;;4970788;28;20523;-72
2024/02/04 08:38:02;;;;;;;2.40;1.10;;;15.50;99.90;;;;;;4979914;28;20034;-72
2024/02/04 08:40:28;;;;;;;3.47;1.27;;;15.50;99.90;;;;;;4982730;28;20033;-72
2024/02/04 08:42:53;;;;;;;3.23;0.97;;;15.50;99.90;;;;;;4988467;28;20034;-73
2024/02/04 08:45:19;;;;;;;4.33;1.10;;;15.50;99.90;;;;;;4974381;28;20043;-73
2024/02/04 08:47:45;;;;;;;1.30;1.20;;;15.50;99.90;;;;;;4988883;28;20038;-72
2024/02/04 08:50:12;;;;;;;5.07;1.13;;;15.50;99.90;;;;;;4978591;28;20105;-73
2024/02/04 08:52:37;;;;;;;1.80;1.00;;;15.50;99.90;;;;;;4977767;28;20027;-72
2024/02/04 08:55:04;;;;;;;4.70;1.27;;;15.50;99.90;;;;;;4973381;28;20078;-72
2024/02/04 08:57:29;;;;;;;3.15;1.00;;;15.50;99.90;;;;;;4979056;28;20034;-72
2024/02/04 08:59:55;;;;;;;3.20;0.97;;;15.50;99.90;;;;;;4979960;28;20487;-72
2024/02/04 09:02:21;;;;;;;4.43;1.43;;;15.50;99.90;;;;;;4983173;28;20027;-73
2024/02/04 09:04:46;;;;;;;2.57;1.10;;;15.50;99.90;;;;;;4983127;28;20090;-72
2024/02/04 09:07:12;;;;;;;4.70;1.17;;;15.50;99.90;;;;;;4974835;28;20038;-72
2024/02/04 09:09:38;;;;;;;8.67;1.67;;;15.60;99.90;;;;;;4980173;28;20030;-72
2024/02/04 09:12:04;;;;;;;5.17;1.40;;;15.60;99.90;;;;;;4978496;28;20073;-74
2024/02/04 09:14:29;;;;;;;2.63;1.17;;;15.60;99.90;;;;;;4975466;28;20311;-73
2024/02/04 09:16:55;;;;;;;48.40;41.53;;;15.60;99.90;;;;;;4977931;28;20089;-72
2024/02/04 09:19:21;;;;;;;13.90;11.13;;;15.60;99.90;;;;;;4974742;28;20387;-72
2024/02/04 09:21:46;;;;;;;11.97;7.17;;;15.60;99.90;;;;;;4980652;28;20101;-72
2024/02/04 09:24:12;;;;;;;11.30;7.03;;;15.70;99.90;;;;;;4975390;28;20034;-72
2024/02/04 09:26:38;;;;;;;10.10;7.23;;;15.70;99.90;;;;;;4982051;28;20038;-72
2024/02/04 09:29:04;;;;;;;11.87;6.83;;;15.70;99.90;;;;;;4978526;28;20502;-73
2024/02/04 09:31:30;;;;;;;7.75;5.60;;;15.70;99.90;;;;;;4979826;28;20098;-74
2024/02/04 09:33:56;;;;;;;13.50;5.97;;;15.70;99.90;;;;;;4977866;28;20178;-72
2024/02/04 09:36:22;;;;;;;5.67;5.03;;;15.70;99.90;;;;;;4973577;28;20427;-72
2024/02/04 09:38:48;;;;;;;7.82;4.90;;;15.70;99.90;;;;;;4977634;28;20428;-73
2024/02/04 09:41:14;;;;;;;7.10;4.40;;;15.70;99.90;;;;;;4976381;28;20114;-72
2024/02/04 09:43:40;;;;;;;8.87;3.77;;;15.70;99.90;;;;;;4983690;28;20531;-72
2024/02/04 09:46:06;;;;;;;;;;;15.80;99.90;;;;;;4975086;28;20027;-72
2024/02/04 09:48:33;;;;;;;6.03;4.13;;;15.80;99.90;;;;;;4974985;28;19921;-72
2024/02/04 09:50:59;;;;;;;6.47;4.25;;;15.80;99.90;;;;;;4977880;28;20080;-72
2024/02/04 09:53:34;;;;;;;7.75;3.35;;;15.80;99.90;;;;;;4974878;28;20034;-72
2024/02/04 09:56:01;;;;;;;20.30;8.18;;;15.80;99.90;;;;;;4973973;28;20118;-73
2024/02/04 09:58:26;;;;;;;25.10;10.90;;;15.90;99.90;;;;;;4977929;28;20405;-72
2024/02/04 10:00:54;;;;;;;9.80;4.87;;;15.90;99.90;;;;;;4979904;28;20533;-72
2024/02/04 10:03:20;;;;;;;10.52;4.30;;;15.80;99.90;;;;;;4974565;28;20030;-73
2024/02/04 10:05:47;;;;;;;7.00;4.15;;;15.80;99.90;;;;;;4975185;28;20109;-73
2024/02/04 10:08:14;;;;;;;7.80;3.67;;;15.90;99.90;;;;;;4980453;28;20062;-73
2024/02/04 10:10:39;;;;;;;12.45;3.83;;;15.90;99.90;;;;;;4977216;28;20129;-74
2024/02/04 10:13:09;;;;;;;8.77;4.70;;;15.90;99.90;;;;;;5015303;28;20487;-73
2024/02/04 10:15:35;;;;;;;11.23;4.20;;;15.90;99.90;;;;;;4980689;28;20255;-73
2024/02/04 10:18:04;;;;;;;10.97;3.90;;;15.90;99.90;;;;;;4973242;28;20031;-74
2024/02/04 10:20:30;;;;;;;40.13;31.40;;;15.90;99.90;;;;;;4975543;28;20036;-72
2024/02/04 10:22:56;;;;;;;8.02;5.32;;;15.90;99.90;;;;;;4978709;28;20058;-73
2024/02/04 10:25:22;;;;;;;16.27;7.97;;;15.90;99.90;;;;;;4977505;28;20144;-72
2024/02/04 10:27:48;;;;;;;14.83;7.43;;;15.90;99.90;;;;;;4966741;28;20131;-73
2024/02/04 10:30:14;;;;;;;13.03;5.97;;;15.90;99.90;;;;;;4976737;28;20026;-73
2024/02/04 10:32:41;;;;;;;13.15;5.55;;;15.90;99.90;;;;;;4987846;28;20031;-72
2024/02/04 10:35:08;;;;;;;10.13;5.43;;;16.00;99.90;;;;;;4981485;28;20030;-73
2024/02/04 10:37:34;;;;;;;;;;;16.00;99.90;;;;;;4976847;28;20032;-73
2024/02/04 10:40:00;;;;;;;10.53;5.33;;;16.00;99.90;;;;;;4977144;28;19927;-72
2024/02/04 10:42:27;;;;;;;7.57;5.23;;;16.00;99.90;;;;;;4977302;28;20264;-73
2024/02/04 10:44:54;;;;;;;7.53;4.43;;;16.00;99.90;;;;;;4982630;28;20472;-73
2024/02/04 10:47:27;;;;;;;17.83;4.85;;;16.10;99.90;;;;;;4975035;28;20518;-73
2024/02/04 10:49:53;;;;;;;10.35;4.35;;;16.10;99.90;;;;;;4972085;28;20033;-72
2024/02/04 10:52:20;;;;;;;8.50;4.63;;;16.10;99.90;;;;;;4963680;28;20027;-74
2024/02/04 10:54:48;;;;;;;9.38;5.30;;;16.10;99.90;;;;;;4997433;28;20777;-75
2024/02/04 10:57:20;;;;;;;12.68;4.63;;;16.10;99.90;;;;;;4977993;28;20503;-74
2024/02/04 10:59:47;;;;;;;11.30;3.47;;;16.20;99.90;;;;;;4976938;28;20045;-74
2024/02/04 11:02:17;;;;;;;11.27;3.78;;;16.20;99.90;;;;;;4973800;28;20034;-75
2024/02/04 11:04:43;;;;;;;9.00;4.03;;;16.20;99.90;;;;;;4977072;28;20031;-74
2024/02/04 11:07:10;;;;;;;7.95;3.80;;;16.20;99.90;;;;;;4980581;28;20030;-73
2024/02/04 11:09:40;;;;;;;4.28;2.92;;;16.30;99.90;;;;;;4981875;28;20035;-73
2024/02/04 11:12:12;;;;;;;6.43;3.40;;;16.30;99.90;;;;;;4973029;28;20045;-74
2024/02/04 11:14:40;;;;;;;13.25;3.30;;;16.30;99.90;;;;;;4967623;28;20027;-74
2024/02/04 11:17:36;;;;;;;5.65;2.83;;;16.30;99.90;;;;;;4972428;28;20539;-74
2024/02/04 11:20:13;;;;;;;5.35;3.33;;;16.30;99.90;;;;;;4984150;28;20117;-73
2024/02/04 11:22:57;;;;;;;9.75;3.55;;;16.30;99.90;;;;;;4974008;28;20053;-73
2024/02/04 11:25:40;;;;;;;6.85;3.20;;;16.30;99.90;;;;;;4988273;28;20077;-74
2024/02/04 11:28:07;;;;;;;5.10;2.83;;;16.40;99.90;;;;;;4990625;28;20096;-74
2024/02/04 11:30:36;;;;;;;6.40;2.58;;;16.40;99.90;;;;;;4978827;28;20031;-74
2024/02/04 11:33:06;;;;;;;5.78;2.40;;;16.50;99.90;;;;;;4972710;28;20057;-73
2024/02/04 11:35:36;;;;;;;4.13;2.30;;;16.50;99.90;;;;;;4972720;28;20077;-74
2024/02/04 11:38:05;;;;;;;4.47;2.50;;;16.50;99.90;;;;;;4971303;28;20471;-74
2024/02/04 11:40:37;;;;;;;7.53;2.13;;;16.50;99.90;;;;;;4970303;28;20047;-74
2024/02/04 11:43:04;;;;;;;4.28;2.42;;;16.60;99.90;;;;;;4970894;28;20045;-74
2024/02/04 11:45:30;;;;;;;3.15;2.13;;;16.60;99.90;;;;;;4972857;28;20033;-73
2024/02/04 11:48:02;;;;;;;3.43;2.47;;;16.60;99.90;;;;;;4972479;28;20031;-75
2024/02/04 11:50:32;;;;;;;10.10;3.10;;;16.60;99.90;;;;;;4974345;28;20384;-73
2024/02/04 11:53:08;;;;;;;12.73;5.45;;;16.70;99.90;;;;;;4974232;28;20042;-74
2024/02/04 11:55:38;;;;;;;18.05;5.45;;;16.60;99.90;;;;;;4972231;28;20515;-73
2024/02/04 11:58:06;;;;;;;10.50;5.28;;;16.60;99.90;;;;;;4972936;28;20093;-73
2024/02/04 12:00:35;;;;;;;8.52;4.03;;;16.70;99.90;;;;;;4971346;28;20041;-73
2024/02/04 12:03:06;;;;;;;14.40;5.30;;;16.70;99.90;;;;;;4969964;28;20035;-72
2024/02/04 12:05:33;;;;;;;222.15;156.90;;;16.70;99.90;;;;;;4971826;28;20140;-72
2024/02/04 12:08:02;;;;;;;45.60;21.65;;;16.60;99.90;;;;;;4970830;28;20053;-73
2024/02/04 12:10:29;;;;;;;56.83;25.70;;;16.60;99.90;;;;;;4975140;28;20384;-72
2024/02/04 12:12:56;;;;;;;56.95;26.63;;;16.60;99.90;;;;;;4970723;28;20035;-74
2024/02/04 12:15:23;;;;;;;63.00;25.27;;;16.60;99.90;;;;;;4971748;28;20030;-74
2024/02/04 12:17:48;;;;;;;;;;;16.70;99.90;;;;;;4970557;28;20038;-75
2024/02/04 12:20:14;;;;;;;66.10;23.37;;;16.70;99.90;;;;;;4968625;28;19914;-75
2024/02/04 12:22:40;;;;;;;43.50;22.33;;;16.80;99.90;;;;;;4968454;28;20276;-73
2024/02/04 12:25:06;;;;;;;57.97;22.47;;;16.80;99.90;;;;;;4974833;28;20042;-73
2024/02/04 12:27:32;;;;;;;49.75;21.85;;;16.80;99.90;;;;;;4970015;28;20559;-73
2024/02/04 12:29:59;;;;;;;51.30;20.07;;;16.90;99.90;;;;;;4976904;28;20129;-74
2024/02/04 12:32:25;;;;;;;51.25;19.35;;;16.90;99.90;;;;;;4966566;28;20680;-73
2024/02/04 12:34:54;;;;;;;52.77;22.17;;;16.90;99.90;;;;;;4968594;28;20055;-74
2024/02/04 12:37:20;;;;;;;37.58;17.52;;;16.90;99.90;;;;;;4970882;28;20737;-75
2024/02/04 12:39:46;;;;;;;42.20;18.15;;;16.90;99.90;;;;;;4989677;28;20031;-75
2024/02/04 12:42:19;;;;;;;38.40;15.85;;;16.90;99.90;;;;;;4970637;28;20097;-77